createdAt,value
2019-02-03T00:00:55.464Z,0.00
2019-02-03T00:01:55.453Z,0.00
2019-02-03T00:02:55.428Z,0.00
2019-02-03T00:03:55.461Z,0.00
2019-02-03T00:04:55.418Z,0.00
2019-02-03T00:05:55.404Z,0.00
2019-02-03T00:07:03.064Z,0.00
2019-02-03T00:07:55.386Z,0.00
2019-02-03T00:08:55.373Z,0.00
2019-02-03T00:09:55.363Z,0.00
2019-02-03T00:10:55.356Z,0.00
2019-02-03T00:11:55.342Z,0.00
2019-02-03T00:12:55.337Z,0.00
2019-02-03T00:13:55.327Z,0.00
2019-02-03T00:14:55.302Z,0.00
2019-02-03T00:15:55.303Z,0.00
2019-02-03T00:16:57.778Z,0.00
2019-02-03T00:17:55.280Z,0.00
2019-02-03T00:18:55.273Z,0.00
2019-02-03T00:19:55.260Z,0.00
2019-02-03T00:20:55.268Z,0.00
2019-02-03T00:21:55.236Z,0.00
2019-02-03T00:22:55.228Z,0.00
2019-02-03T00:23:55.216Z,0.00
2019-02-03T00:24:55.208Z,0.00
2019-02-03T00:25:55.198Z,0.00
2019-02-03T00:26:55.185Z,0.00
2019-02-03T00:27:55.195Z,0.00
2019-02-03T00:28:55.176Z,0.00
2019-02-03T00:29:55.148Z,0.00
2019-02-03T00:30:55.155Z,0.00
2019-02-03T00:31:55.151Z,0.00
2019-02-03T00:32:55.123Z,0.00
2019-02-03T00:33:55.118Z,0.00
2019-02-03T00:34:55.130Z,0.00
2019-02-03T00:35:55.091Z,0.00
2019-02-03T00:36:55.080Z,0.00
2019-02-03T00:37:55.086Z,0.00
2019-02-03T00:38:55.166Z,0.00
2019-02-03T00:39:55.049Z,0.00
2019-02-03T00:40:55.089Z,0.00
2019-02-03T00:41:55.028Z,0.00
2019-02-03T00:42:55.017Z,0.00
2019-02-03T00:43:55.007Z,0.00
2019-02-03T00:44:54.995Z,0.00
2019-02-03T00:45:54.985Z,0.00
2019-02-03T00:46:54.976Z,0.00
2019-02-03T00:47:54.964Z,0.00
2019-02-03T00:48:54.955Z,0.00
2019-02-03T00:49:54.944Z,0.00
2019-02-03T00:50:54.934Z,0.00
2019-02-03T00:51:54.923Z,0.00
2019-02-03T00:52:54.913Z,0.00
2019-02-03T00:53:54.904Z,0.00
2019-02-03T00:54:54.893Z,0.00
2019-02-03T00:55:54.881Z,0.00
2019-02-03T00:56:54.871Z,0.00
2019-02-03T00:57:54.861Z,0.00
2019-02-03T00:58:54.850Z,0.00
2019-02-03T00:59:54.841Z,0.00
2019-02-03T01:00:54.831Z,0.00
2019-02-03T01:01:54.818Z,0.00
2019-02-03T01:02:54.808Z,0.00
2019-02-03T01:03:54.799Z,0.00
2019-02-03T01:04:54.788Z,0.00
2019-02-03T01:05:54.796Z,0.00
2019-02-03T01:06:54.767Z,0.00
2019-02-03T01:07:54.763Z,0.00
2019-02-03T01:08:54.750Z,0.00
2019-02-03T01:09:54.739Z,0.00
2019-02-03T01:10:54.732Z,0.00
2019-02-03T01:11:54.716Z,0.00
2019-02-03T01:12:54.704Z,0.00
2019-02-03T01:13:54.694Z,0.00
2019-02-03T01:14:54.684Z,0.00
2019-02-03T01:15:54.677Z,0.00
2019-02-03T01:16:54.663Z,0.00
2019-02-03T01:17:54.648Z,0.00
2019-02-03T01:18:54.643Z,0.00
2019-02-03T01:19:54.633Z,0.00
2019-02-03T01:20:54.620Z,0.00
2019-02-03T01:21:54.610Z,0.00
2019-02-03T01:22:54.600Z,0.00
2019-02-03T01:23:54.599Z,0.00
2019-02-03T01:24:54.717Z,0.00
2019-02-03T01:25:54.566Z,0.00
2019-02-03T01:26:54.557Z,0.00
2019-02-03T01:27:54.549Z,0.00
2019-02-03T01:28:54.537Z,0.00
2019-02-03T01:29:54.525Z,0.00
2019-02-03T01:30:54.517Z,0.00
2019-02-03T01:31:54.503Z,0.00
2019-02-03T01:32:54.497Z,0.00
2019-02-03T01:33:54.475Z,0.00
2019-02-03T01:34:54.475Z,0.00
2019-02-03T01:35:54.463Z,0.00
2019-02-03T01:36:54.458Z,0.00
2019-02-03T01:37:54.441Z,0.00
2019-02-03T01:38:54.430Z,0.00
2019-02-03T01:39:54.421Z,0.00
2019-02-03T01:40:54.416Z,0.00
2019-02-03T01:41:54.402Z,0.00
2019-02-03T01:42:54.401Z,0.00
2019-02-03T01:43:54.385Z,0.00
2019-02-03T01:44:54.369Z,0.00
2019-02-03T01:45:54.360Z,0.00
2019-02-03T01:46:54.364Z,0.00
2019-02-03T01:47:54.338Z,0.00
2019-02-03T01:48:54.330Z,0.00
2019-02-03T01:49:54.317Z,0.00
2019-02-03T01:50:54.330Z,0.00
2019-02-03T01:51:54.298Z,0.00
2019-02-03T01:52:54.286Z,0.00
2019-02-03T01:53:54.274Z,0.00
2019-02-03T01:54:54.264Z,0.00
2019-02-03T01:55:54.254Z,0.00
2019-02-03T01:56:54.359Z,0.00
2019-02-03T01:57:54.236Z,0.00
2019-02-03T01:58:54.222Z,0.00
2019-02-03T01:59:54.212Z,0.00
2019-02-03T02:00:54.201Z,0.00
2019-02-03T02:01:54.190Z,0.00
2019-02-03T02:02:54.214Z,0.00
2019-02-03T02:03:54.171Z,0.00
2019-02-03T02:04:54.162Z,0.00
2019-02-03T02:05:54.148Z,0.00
2019-02-03T02:06:54.135Z,0.00
2019-02-03T02:07:54.136Z,0.00
2019-02-03T02:08:54.137Z,0.00
2019-02-03T02:09:54.110Z,0.00
2019-02-03T02:10:54.096Z,0.00
2019-02-03T02:11:54.084Z,0.00
2019-02-03T02:12:54.077Z,0.00
2019-02-03T02:13:54.064Z,0.00
2019-02-03T02:14:54.054Z,0.00
2019-02-03T02:15:54.044Z,0.00
2019-02-03T02:16:54.032Z,0.00
2019-02-03T02:17:54.022Z,0.00
2019-02-03T02:18:54.011Z,0.00
2019-02-03T02:19:54.001Z,0.00
2019-02-03T02:20:53.999Z,0.00
2019-02-03T02:21:53.973Z,0.00
2019-02-03T02:22:53.974Z,0.00
2019-02-03T02:23:53.956Z,0.00
2019-02-03T02:24:53.941Z,0.00
2019-02-03T02:25:53.933Z,0.00
2019-02-03T02:26:53.925Z,0.00
2019-02-03T02:27:53.916Z,0.00
2019-02-03T02:28:53.906Z,0.00
2019-02-03T02:29:53.889Z,0.00
2019-02-03T02:30:53.899Z,0.00
2019-02-03T02:31:53.874Z,0.00
2019-02-03T02:32:53.865Z,0.00
2019-02-03T02:33:53.852Z,0.00
2019-02-03T02:34:53.831Z,0.00
2019-02-03T02:35:53.839Z,0.00
2019-02-03T02:36:53.819Z,0.00
2019-02-03T02:38:05.701Z,0.00
2019-02-03T02:38:53.800Z,0.00
2019-02-03T02:39:53.788Z,0.00
2019-02-03T02:40:53.780Z,0.00
2019-02-03T02:41:53.767Z,0.00
2019-02-03T02:42:53.861Z,0.00
2019-02-03T02:43:53.745Z,0.00
2019-02-03T02:44:53.734Z,0.00
2019-02-03T02:45:53.725Z,0.00
2019-02-03T02:46:53.712Z,0.00
2019-02-03T02:47:53.703Z,0.00
2019-02-03T02:48:53.692Z,0.00
2019-02-03T02:49:53.685Z,0.00
2019-02-03T02:50:53.676Z,0.00
2019-02-03T02:51:53.661Z,0.00
2019-02-03T02:52:53.639Z,0.00
2019-02-03T02:53:53.641Z,0.00
2019-02-03T02:54:53.624Z,0.00
2019-02-03T02:55:53.620Z,0.00
2019-02-03T02:56:53.608Z,0.00
2019-02-03T02:57:53.597Z,0.00
2019-02-03T02:58:53.591Z,0.00
2019-02-03T02:59:53.573Z,0.00
2019-02-03T03:00:53.567Z,0.00
2019-02-03T03:01:53.551Z,0.00
2019-02-03T03:02:53.543Z,0.00
2019-02-03T03:03:53.539Z,0.00
2019-02-03T03:04:53.517Z,0.00
2019-02-03T03:05:53.513Z,0.00
2019-02-03T03:06:53.504Z,0.00
2019-02-03T03:07:53.488Z,0.00
2019-02-03T03:08:53.508Z,0.00
2019-02-03T03:09:53.472Z,0.00
2019-02-03T03:10:53.461Z,0.00
2019-02-03T03:11:53.446Z,0.00
2019-02-03T03:12:53.429Z,0.00
2019-02-03T03:13:53.458Z,0.00
2019-02-03T03:14:53.414Z,0.00
2019-02-03T03:15:53.392Z,0.00
2019-02-03T03:16:53.393Z,0.00
2019-02-03T03:17:53.377Z,0.00
2019-02-03T03:18:53.371Z,0.00
2019-02-03T03:19:53.360Z,0.00
2019-02-03T03:20:53.341Z,0.00
2019-02-03T03:21:53.351Z,0.00
2019-02-03T03:22:53.329Z,0.00
2019-02-03T03:23:53.318Z,0.00
2019-02-03T03:24:53.309Z,0.00
2019-02-03T03:25:53.297Z,0.00
2019-02-03T03:26:53.286Z,0.00
2019-02-03T03:27:53.281Z,0.00
2019-02-03T03:28:53.265Z,0.00
2019-02-03T03:29:53.255Z,0.00
2019-02-03T03:30:53.244Z,0.00
2019-02-03T03:31:53.233Z,0.00
2019-02-03T03:32:53.277Z,0.00
2019-02-03T03:33:53.212Z,0.00
2019-02-03T03:34:53.201Z,0.00
2019-02-03T03:35:53.190Z,0.00
2019-02-03T03:36:53.180Z,0.00
2019-02-03T03:37:53.173Z,0.00
2019-02-03T03:38:54.030Z,0.00
2019-02-03T03:39:53.147Z,0.00
2019-02-03T03:40:53.137Z,0.00
2019-02-03T03:41:53.127Z,0.00
2019-02-03T03:42:53.115Z,0.00
2019-02-03T03:43:53.106Z,0.00
2019-02-03T03:44:53.094Z,0.00
2019-02-03T03:45:53.080Z,0.00
2019-02-03T03:46:53.073Z,0.00
2019-02-03T03:47:53.062Z,0.00
2019-02-03T03:48:53.048Z,0.00
2019-02-03T03:49:53.217Z,0.00
2019-02-03T03:50:53.038Z,0.00
2019-02-03T03:51:53.019Z,0.00
2019-02-03T03:52:53.007Z,0.00
2019-02-03T03:53:52.996Z,0.00
2019-02-03T03:54:52.985Z,0.00
2019-02-03T03:55:53.022Z,0.00
2019-02-03T03:56:52.967Z,0.00
2019-02-03T03:57:52.954Z,0.00
2019-02-03T03:58:52.946Z,0.00
2019-02-03T03:59:52.934Z,0.00
2019-02-03T04:00:52.925Z,0.00
2019-02-03T04:01:52.918Z,0.00
2019-02-03T04:02:52.906Z,0.00
2019-02-03T04:03:52.892Z,0.00
2019-02-03T04:04:52.895Z,0.00
2019-02-03T04:05:52.871Z,0.00
2019-02-03T04:06:52.863Z,0.00
2019-02-03T04:07:53.033Z,0.00
2019-02-03T04:08:52.840Z,0.00
2019-02-03T04:09:52.828Z,0.00
2019-02-03T04:10:52.819Z,0.00
2019-02-03T04:11:52.796Z,0.00
2019-02-03T04:12:52.800Z,0.00
2019-02-03T04:13:52.784Z,0.00
2019-02-03T04:14:52.775Z,0.00
2019-02-03T04:15:52.771Z,0.00
2019-02-03T04:16:52.758Z,0.00
2019-02-03T04:17:52.743Z,0.00
2019-02-03T04:18:52.733Z,0.00
2019-02-03T04:19:52.725Z,0.00
2019-02-03T04:20:52.713Z,0.00
2019-02-03T04:21:52.705Z,0.00
2019-02-03T04:22:52.693Z,0.00
2019-02-03T04:23:52.683Z,0.00
2019-02-03T04:24:52.682Z,0.00
2019-02-03T04:25:52.658Z,0.00
2019-02-03T04:26:52.650Z,0.00
2019-02-03T04:27:52.642Z,0.00
2019-02-03T04:28:52.628Z,0.00
2019-02-03T04:29:52.619Z,0.00
2019-02-03T04:30:52.605Z,0.00
2019-02-03T04:31:52.600Z,0.00
2019-02-03T04:32:52.590Z,0.00
2019-02-03T04:33:52.582Z,0.00
2019-02-03T04:34:52.573Z,0.00
2019-02-03T04:35:52.558Z,0.00
2019-02-03T04:36:52.548Z,0.00
2019-02-03T04:37:52.544Z,0.00
2019-02-03T04:38:58.472Z,0.00
2019-02-03T04:39:52.520Z,0.00
2019-02-03T04:40:52.506Z,0.00
2019-02-03T04:41:52.505Z,0.00
2019-02-03T04:42:52.484Z,0.00
2019-02-03T04:43:52.474Z,0.00
2019-02-03T04:44:52.466Z,0.00
2019-02-03T04:45:52.453Z,0.00
2019-02-03T04:46:52.443Z,0.00
2019-02-03T04:47:52.447Z,0.00
2019-02-03T04:48:52.423Z,0.00
2019-02-03T04:49:52.411Z,0.00
2019-02-03T04:50:52.411Z,0.00
2019-02-03T04:51:52.392Z,0.00
2019-02-03T04:52:52.380Z,0.00
2019-02-03T04:53:52.371Z,0.00
2019-02-03T04:54:52.357Z,0.00
2019-02-03T04:55:52.369Z,0.00
2019-02-03T04:56:52.340Z,0.00
2019-02-03T04:57:52.331Z,0.00
2019-02-03T04:58:52.317Z,0.00
2019-02-03T04:59:52.310Z,0.00
2019-02-03T05:00:52.340Z,0.00
2019-02-03T05:01:52.286Z,0.00
2019-02-03T05:02:52.276Z,0.00
2019-02-03T05:03:52.268Z,0.00
2019-02-03T05:04:52.261Z,0.00
2019-02-03T05:05:52.244Z,0.00
2019-02-03T05:06:52.234Z,0.00
2019-02-03T05:07:52.225Z,0.00
2019-02-03T05:08:52.210Z,0.00
2019-02-03T05:09:52.206Z,0.00
2019-02-03T05:10:52.191Z,0.00
2019-02-03T05:11:52.184Z,0.00
2019-02-03T05:12:52.172Z,0.00
2019-02-03T05:13:52.159Z,0.00
2019-02-03T05:14:52.156Z,0.00
2019-02-03T05:15:52.143Z,0.00
2019-02-03T05:16:52.150Z,0.00
2019-02-03T05:17:52.118Z,0.00
2019-02-03T05:18:52.111Z,0.00
2019-02-03T05:19:52.140Z,0.00
2019-02-03T05:20:52.086Z,0.00
2019-02-03T05:21:52.079Z,0.00
2019-02-03T05:22:52.067Z,0.00
2019-02-03T05:23:52.066Z,0.00
2019-02-03T05:24:52.046Z,0.00
2019-02-03T05:25:54.474Z,0.00
2019-02-03T05:26:52.026Z,0.00
2019-02-03T05:27:52.016Z,0.00
2019-02-03T05:28:52.027Z,0.00
2019-02-03T05:29:51.995Z,0.00
2019-02-03T05:30:51.986Z,0.00
2019-02-03T05:31:51.974Z,0.00
2019-02-03T05:32:51.963Z,0.00
2019-02-03T05:33:51.952Z,0.00
2019-02-03T05:34:51.944Z,0.00
2019-02-03T05:35:51.933Z,0.00
2019-02-03T05:36:51.921Z,0.00
2019-02-03T05:37:51.914Z,0.00
2019-02-03T05:38:55.121Z,0.00
2019-02-03T05:39:51.891Z,0.00
2019-02-03T05:40:51.880Z,0.00
2019-02-03T05:41:51.870Z,0.00
2019-02-03T05:42:51.859Z,0.00
2019-02-03T05:43:51.851Z,0.00
2019-02-03T05:44:51.846Z,0.00
2019-02-03T05:45:51.827Z,0.00
2019-02-03T05:46:51.817Z,0.00
2019-02-03T05:47:51.810Z,0.00
2019-02-03T05:48:51.793Z,0.00
2019-02-03T05:49:51.789Z,0.00
2019-02-03T05:50:51.775Z,0.00
2019-02-03T05:51:51.763Z,0.00
2019-02-03T05:52:51.752Z,0.00
2019-02-03T05:53:51.746Z,0.00
2019-02-03T05:54:51.733Z,0.00
2019-02-03T05:55:51.721Z,0.00
2019-02-03T05:56:51.708Z,0.00
2019-02-03T05:57:51.701Z,0.00
2019-02-03T05:58:51.689Z,0.00
2019-02-03T05:59:51.680Z,0.00
2019-02-03T06:00:51.669Z,0.00
2019-02-03T06:01:51.658Z,0.00
2019-02-03T06:02:51.654Z,0.00
2019-02-03T06:03:51.635Z,0.00
2019-02-03T06:04:51.631Z,0.00
2019-02-03T06:05:51.625Z,0.00
2019-02-03T06:06:51.606Z,0.00
2019-02-03T06:07:51.593Z,0.00
2019-02-03T06:08:51.585Z,0.00
2019-02-03T06:09:51.627Z,0.00
2019-02-03T06:10:51.562Z,0.00
2019-02-03T06:11:51.550Z,0.00
2019-02-03T06:12:51.551Z,0.00
2019-02-03T06:13:51.530Z,0.00
2019-02-03T06:14:51.520Z,0.00
2019-02-03T06:15:51.520Z,0.00
2019-02-03T06:16:51.498Z,0.00
2019-02-03T06:17:51.491Z,0.00
2019-02-03T06:18:51.477Z,0.00
2019-02-03T06:19:51.463Z,0.00
2019-02-03T06:20:51.454Z,0.00
2019-02-03T06:21:51.443Z,0.00
2019-02-03T06:22:51.431Z,0.00
2019-02-03T06:23:51.422Z,0.00
2019-02-03T06:24:51.933Z,0.00
2019-02-03T06:25:51.401Z,0.00
2019-02-03T06:26:51.377Z,0.00
2019-02-03T06:27:51.378Z,0.00
2019-02-03T06:28:51.366Z,0.00
2019-02-03T06:29:51.354Z,0.00
2019-02-03T06:30:51.349Z,0.00
2019-02-03T06:31:51.337Z,0.00
2019-02-03T06:32:51.321Z,0.00
2019-02-03T06:33:51.313Z,0.00
2019-02-03T06:34:51.299Z,0.00
2019-02-03T06:35:51.289Z,0.00
2019-02-03T06:36:51.808Z,0.00
2019-02-03T06:37:51.266Z,0.00
2019-02-03T06:38:51.255Z,0.00
2019-02-03T06:39:51.244Z,0.00
2019-02-03T06:40:51.231Z,0.00
2019-02-03T06:41:51.220Z,0.00
2019-02-03T06:42:51.210Z,0.00
2019-02-03T06:43:51.195Z,0.00
2019-02-03T06:44:51.186Z,0.00
2019-02-03T06:45:51.174Z,0.00
2019-02-03T06:46:51.162Z,0.00
2019-02-03T06:47:51.153Z,0.00
2019-02-03T06:48:51.141Z,0.00
2019-02-03T06:49:51.119Z,0.00
2019-02-03T06:50:51.115Z,5.63
2019-02-03T06:51:51.109Z,5.63
2019-02-03T06:52:51.101Z,5.63
2019-02-03T06:53:51.084Z,5.63
2019-02-03T06:54:51.072Z,5.63
2019-02-03T06:55:51.058Z,5.63
2019-02-03T06:56:51.053Z,5.63
2019-02-03T06:57:51.034Z,5.63
2019-02-03T06:58:51.028Z,11.25
2019-02-03T06:59:51.437Z,11.25
2019-02-03T07:00:51.003Z,11.25
2019-02-03T07:01:50.992Z,11.25
2019-02-03T07:02:50.981Z,16.88
2019-02-03T07:03:50.967Z,16.88
2019-02-03T07:04:50.958Z,16.88
2019-02-03T07:05:50.945Z,16.88
2019-02-03T07:06:50.933Z,22.50
2019-02-03T07:07:50.922Z,22.50
2019-02-03T07:08:50.917Z,22.50
2019-02-03T07:10:00.034Z,28.13
2019-02-03T07:10:50.890Z,28.13
2019-02-03T07:11:50.877Z,28.13
2019-02-03T07:12:50.860Z,33.75
2019-02-03T07:13:50.852Z,33.75
2019-02-03T07:14:50.839Z,33.75
2019-02-03T07:15:50.853Z,33.75
2019-02-03T07:16:50.818Z,39.38
2019-02-03T07:17:50.805Z,39.38
2019-02-03T07:18:50.796Z,39.38
2019-02-03T07:19:50.800Z,45.00
2019-02-03T07:20:50.775Z,45.00
2019-02-03T07:21:50.783Z,45.00
2019-02-03T07:22:50.753Z,50.63
2019-02-03T07:23:50.731Z,50.63
2019-02-03T07:24:50.777Z,56.25
2019-02-03T07:25:50.727Z,56.25
2019-02-03T07:26:50.709Z,56.25
2019-02-03T07:27:50.693Z,61.88
2019-02-03T07:28:50.689Z,61.88
2019-02-03T07:29:50.663Z,67.50
2019-02-03T07:30:50.674Z,67.50
2019-02-03T07:31:50.653Z,73.13
2019-02-03T07:32:50.639Z,73.13
2019-02-03T07:33:50.613Z,73.13
2019-02-03T07:34:50.613Z,78.75
2019-02-03T07:35:50.599Z,78.75
2019-02-03T07:36:50.588Z,78.75
2019-02-03T07:37:50.588Z,78.75
2019-02-03T07:38:50.570Z,84.38
2019-02-03T07:39:50.557Z,84.38
2019-02-03T07:40:50.547Z,84.38
2019-02-03T07:41:50.528Z,90.00
2019-02-03T07:42:50.523Z,90.00
2019-02-03T07:43:50.511Z,95.63
2019-02-03T07:44:50.504Z,95.63
2019-02-03T07:45:50.490Z,101.25
2019-02-03T07:46:50.470Z,101.25
2019-02-03T07:47:50.473Z,106.88
2019-02-03T07:48:50.460Z,106.88
2019-02-03T07:49:50.445Z,112.50
2019-02-03T07:50:50.435Z,112.50
2019-02-03T07:51:50.426Z,118.13
2019-02-03T07:52:50.429Z,118.13
2019-02-03T07:53:50.401Z,123.75
2019-02-03T07:54:50.462Z,118.13
2019-02-03T07:55:50.379Z,118.13
2019-02-03T07:56:50.381Z,118.13
2019-02-03T07:57:50.367Z,118.13
2019-02-03T07:58:50.364Z,112.50
2019-02-03T07:59:50.333Z,118.13
2019-02-03T08:00:50.323Z,112.50
2019-02-03T08:01:50.314Z,112.50
2019-02-03T08:02:50.304Z,112.50
2019-02-03T08:03:50.288Z,106.88
2019-02-03T08:04:50.282Z,101.25
2019-02-03T08:05:50.265Z,95.63
2019-02-03T08:06:50.256Z,95.63
2019-02-03T08:07:50.246Z,95.63
2019-02-03T08:08:50.235Z,95.63
2019-02-03T08:09:50.224Z,95.63
2019-02-03T08:10:50.216Z,101.25
2019-02-03T08:11:50.204Z,95.63
2019-02-03T08:12:50.209Z,95.63
2019-02-03T08:13:50.178Z,95.63
2019-02-03T08:14:50.168Z,106.88
2019-02-03T08:15:50.153Z,101.25
2019-02-03T08:16:50.144Z,112.50
2019-02-03T08:17:50.139Z,112.50
2019-02-03T08:18:50.124Z,112.50
2019-02-03T08:19:50.112Z,118.13
2019-02-03T08:20:50.099Z,123.75
2019-02-03T08:21:50.087Z,123.75
2019-02-03T08:22:50.083Z,123.75
2019-02-03T08:23:51.262Z,129.38
2019-02-03T08:24:50.056Z,123.75
2019-02-03T08:25:50.045Z,129.38
2019-02-03T08:26:50.067Z,129.38
2019-02-03T08:27:50.024Z,129.38
2019-02-03T08:28:50.013Z,135.00
2019-02-03T08:29:50.003Z,140.63
2019-02-03T08:30:49.989Z,151.88
2019-02-03T08:31:49.979Z,151.88
2019-02-03T08:32:49.971Z,157.50
2019-02-03T08:33:49.956Z,157.50
2019-02-03T08:34:49.942Z,157.50
2019-02-03T08:35:49.936Z,163.13
2019-02-03T08:36:49.927Z,163.13
2019-02-03T08:37:49.909Z,163.13
2019-02-03T08:38:49.908Z,168.75
2019-02-03T08:39:49.890Z,168.75
2019-02-03T08:40:49.879Z,168.75
2019-02-03T08:41:49.869Z,168.75
2019-02-03T08:42:49.862Z,168.75
2019-02-03T08:43:49.849Z,174.38
2019-02-03T08:44:49.827Z,174.38
2019-02-03T08:45:49.823Z,174.38
2019-02-03T08:46:49.812Z,174.38
2019-02-03T08:47:49.799Z,174.38
2019-02-03T08:48:49.790Z,174.38
2019-02-03T08:49:49.787Z,180.00
2019-02-03T08:50:49.773Z,180.00
2019-02-03T08:51:49.757Z,185.63
2019-02-03T08:52:51.431Z,185.63
2019-02-03T08:53:49.734Z,196.88
2019-02-03T08:54:57.973Z,202.50
2019-02-03T08:55:49.713Z,208.13
2019-02-03T08:56:49.716Z,213.75
2019-02-03T08:57:49.690Z,219.38
2019-02-03T08:58:49.679Z,219.38
2019-02-03T08:59:49.667Z,219.38
2019-02-03T09:00:49.658Z,219.38
2019-02-03T09:01:49.646Z,225.00
2019-02-03T09:02:49.638Z,225.00
2019-02-03T09:03:49.630Z,230.63
2019-02-03T09:04:49.615Z,230.63
2019-02-03T09:05:49.605Z,236.25
2019-02-03T09:06:49.594Z,241.88
2019-02-03T09:07:49.573Z,241.88
2019-02-03T09:08:49.580Z,230.63
2019-02-03T09:09:49.564Z,236.25
2019-02-03T09:10:49.568Z,247.50
2019-02-03T09:11:49.538Z,241.88
2019-02-03T09:12:49.521Z,241.88
2019-02-03T09:13:49.516Z,264.38
2019-02-03T09:14:49.508Z,281.25
2019-02-03T09:15:51.941Z,286.88
2019-02-03T09:16:49.487Z,292.50
2019-02-03T09:17:49.474Z,303.75
2019-02-03T09:18:49.462Z,309.38
2019-02-03T09:19:49.452Z,315.00
2019-02-03T09:20:49.444Z,320.63
2019-02-03T09:21:49.432Z,320.63
2019-02-03T09:22:49.419Z,326.25
2019-02-03T09:23:49.412Z,337.50
2019-02-03T09:24:49.401Z,348.75
2019-02-03T09:25:49.390Z,354.38
2019-02-03T09:26:49.378Z,365.63
2019-02-03T09:27:49.368Z,376.88
2019-02-03T09:28:49.357Z,388.13
2019-02-03T09:29:49.343Z,393.75
2019-02-03T09:30:49.349Z,405.00
2019-02-03T09:31:49.372Z,410.63
2019-02-03T09:32:49.310Z,421.88
2019-02-03T09:33:49.305Z,427.50
2019-02-03T09:34:49.298Z,433.13
2019-02-03T09:35:49.292Z,433.13
2019-02-03T09:36:49.273Z,438.75
2019-02-03T09:37:49.260Z,444.38
2019-02-03T09:38:49.254Z,450.00
2019-02-03T09:39:49.234Z,455.63
2019-02-03T09:40:59.501Z,466.88
2019-02-03T09:41:49.223Z,466.88
2019-02-03T09:42:49.215Z,466.88
2019-02-03T09:43:49.204Z,461.25
2019-02-03T09:44:49.194Z,444.38
2019-02-03T09:45:49.184Z,455.63
2019-02-03T09:46:49.182Z,450.00
2019-02-03T09:47:49.167Z,472.50
2019-02-03T09:48:49.159Z,478.13
2019-02-03T09:49:49.145Z,478.13
2019-02-03T09:50:49.138Z,483.75
2019-02-03T09:51:49.129Z,489.38
2019-02-03T09:52:49.117Z,472.50
2019-02-03T09:53:49.105Z,478.13
2019-02-03T09:54:50.198Z,478.13
2019-02-03T09:55:49.086Z,450.00
2019-02-03T09:56:49.074Z,466.88
2019-02-03T09:57:49.074Z,466.88
2019-02-03T09:58:49.131Z,466.88
2019-02-03T09:59:49.049Z,478.13
2019-02-03T10:00:49.040Z,489.38
2019-02-03T10:01:49.027Z,495.00
2019-02-03T10:02:49.012Z,472.50
2019-02-03T10:03:49.009Z,506.25
2019-02-03T10:04:49.005Z,506.25
2019-02-03T10:05:48.991Z,506.25
2019-02-03T10:06:48.981Z,511.88
2019-02-03T10:07:48.971Z,500.63
2019-02-03T10:08:48.963Z,517.50
2019-02-03T10:09:48.956Z,523.13
2019-02-03T10:10:48.936Z,523.13
2019-02-03T10:11:48.958Z,517.50
2019-02-03T10:12:48.923Z,523.13
2019-02-03T10:13:48.913Z,523.13
2019-02-03T10:14:48.906Z,528.75
2019-02-03T10:15:48.888Z,517.50
2019-02-03T10:16:48.886Z,523.13
2019-02-03T10:17:48.893Z,523.13
2019-02-03T10:18:48.866Z,523.13
2019-02-03T10:19:48.854Z,523.13
2019-02-03T10:20:48.850Z,528.75
2019-02-03T10:21:48.842Z,528.75
2019-02-03T10:22:48.830Z,528.75
2019-02-03T10:23:48.822Z,528.75
2019-02-03T10:24:48.802Z,528.75
2019-02-03T10:25:48.801Z,523.13
2019-02-03T10:26:48.790Z,517.50
2019-02-03T10:27:48.781Z,523.13
2019-02-03T10:28:48.785Z,517.50
2019-02-03T10:29:48.780Z,511.88
2019-02-03T10:30:48.758Z,517.50
2019-02-03T10:31:48.760Z,495.00
2019-02-03T10:32:48.735Z,455.63
2019-02-03T10:33:48.725Z,495.00
2019-02-03T10:34:48.716Z,511.88
2019-02-03T10:35:48.706Z,495.00
2019-02-03T10:36:48.704Z,489.38
2019-02-03T10:37:48.677Z,506.25
2019-02-03T10:38:48.695Z,517.50
2019-02-03T10:39:48.660Z,511.88
2019-02-03T10:40:48.659Z,517.50
2019-02-03T10:41:48.638Z,511.88
2019-02-03T10:42:48.637Z,528.75
2019-02-03T10:43:48.629Z,534.38
2019-02-03T10:44:48.632Z,540.00
2019-02-03T10:45:48.613Z,528.75
2019-02-03T10:46:48.600Z,523.13
2019-02-03T10:47:48.604Z,523.13
2019-02-03T10:48:48.582Z,523.13
2019-02-03T10:49:48.567Z,534.38
2019-02-03T10:50:48.563Z,534.38
2019-02-03T10:51:48.987Z,523.13
2019-02-03T10:52:48.551Z,528.75
2019-02-03T10:53:48.599Z,523.13
2019-02-03T10:54:48.526Z,523.13
2019-02-03T10:55:48.516Z,517.50
2019-02-03T10:56:48.510Z,523.13
2019-02-03T10:57:48.495Z,523.13
2019-02-03T10:58:48.486Z,511.88
2019-02-03T10:59:48.476Z,517.50
2019-02-03T11:00:48.463Z,500.63
2019-02-03T11:01:48.454Z,511.88
2019-02-03T11:02:48.450Z,478.13
2019-02-03T11:03:48.440Z,478.13
2019-02-03T11:04:48.428Z,506.25
2019-02-03T11:05:48.419Z,517.50
2019-02-03T11:06:48.442Z,528.75
2019-02-03T11:07:48.402Z,528.75
2019-02-03T11:08:48.392Z,528.75
2019-02-03T11:09:48.383Z,528.75
2019-02-03T11:10:48.375Z,528.75
2019-02-03T11:11:48.396Z,528.75
2019-02-03T11:12:48.355Z,517.50
2019-02-03T11:13:48.346Z,511.88
2019-02-03T11:14:48.356Z,506.25
2019-02-03T11:15:48.325Z,500.63
2019-02-03T11:16:51.004Z,472.50
2019-02-03T11:17:48.304Z,534.38
2019-02-03T11:18:48.296Z,523.13
2019-02-03T11:19:48.293Z,534.38
2019-02-03T11:20:48.281Z,540.00
2019-02-03T11:21:48.269Z,579.38
2019-02-03T11:22:48.259Z,585.00
2019-02-03T11:23:48.250Z,585.00
2019-02-03T11:24:48.259Z,585.00
2019-02-03T11:25:48.232Z,585.00
2019-02-03T11:26:48.220Z,590.63
2019-02-03T11:27:48.221Z,596.25
2019-02-03T11:28:48.214Z,596.25
2019-02-03T11:29:48.193Z,601.88
2019-02-03T11:30:48.183Z,607.50
2019-02-03T11:31:48.170Z,613.13
2019-02-03T11:32:48.165Z,618.75
2019-02-03T11:33:48.155Z,624.38
2019-02-03T11:34:48.149Z,630.00
2019-02-03T11:35:48.158Z,635.63
2019-02-03T11:36:48.127Z,635.63
2019-02-03T11:37:48.118Z,635.63
2019-02-03T11:38:48.145Z,641.25
2019-02-03T11:39:48.112Z,630.00
2019-02-03T11:40:48.091Z,630.00
2019-02-03T11:41:49.512Z,630.00
2019-02-03T11:42:48.071Z,630.00
2019-02-03T11:43:48.062Z,624.38
2019-02-03T11:44:48.050Z,630.00
2019-02-03T11:45:48.044Z,630.00
2019-02-03T11:46:48.035Z,618.75
2019-02-03T11:47:48.027Z,601.88
2019-02-03T11:48:48.016Z,618.75
2019-02-03T11:49:48.008Z,613.13
2019-02-03T11:50:48.121Z,613.13
2019-02-03T11:51:47.989Z,601.88
2019-02-03T11:52:47.984Z,601.88
2019-02-03T11:53:47.995Z,601.88
2019-02-03T11:54:47.967Z,607.50
2019-02-03T11:55:47.949Z,596.25
2019-02-03T11:56:47.942Z,596.25
2019-02-03T11:57:47.946Z,579.38
2019-02-03T11:58:47.932Z,579.38
2019-02-03T11:59:47.914Z,568.13
2019-02-03T12:00:47.905Z,573.75
2019-02-03T12:01:47.901Z,568.13
2019-02-03T12:02:47.888Z,562.50
2019-02-03T12:03:47.876Z,511.88
2019-02-03T12:04:47.866Z,540.00
2019-02-03T12:05:47.859Z,562.50
2019-02-03T12:06:47.894Z,528.75
2019-02-03T12:07:47.905Z,551.25
2019-02-03T12:08:47.832Z,568.13
2019-02-03T12:09:47.820Z,573.75
2019-02-03T12:10:47.918Z,562.50
2019-02-03T12:11:47.845Z,556.88
2019-02-03T12:12:47.870Z,562.50
2019-02-03T12:13:47.781Z,545.63
2019-02-03T12:14:47.811Z,528.75
2019-02-03T12:15:48.232Z,523.13
2019-02-03T12:16:47.757Z,545.63
2019-02-03T12:17:47.746Z,511.88
2019-02-03T12:18:47.736Z,511.88
2019-02-03T12:19:47.728Z,517.50
2019-02-03T12:20:47.717Z,517.50
2019-02-03T12:21:47.713Z,495.00
2019-02-03T12:22:47.699Z,483.75
2019-02-03T12:23:47.689Z,495.00
2019-02-03T12:24:47.680Z,545.63
2019-02-03T12:25:47.666Z,523.13
2019-02-03T12:26:47.665Z,517.50
2019-02-03T12:27:47.648Z,523.13
2019-02-03T12:28:47.643Z,517.50
2019-02-03T12:29:47.631Z,523.13
2019-02-03T12:30:47.626Z,528.75
2019-02-03T12:31:47.684Z,551.25
2019-02-03T12:32:47.595Z,556.88
2019-02-03T12:33:47.596Z,551.25
2019-02-03T12:34:47.588Z,556.88
2019-02-03T12:35:47.577Z,551.25
2019-02-03T12:36:47.565Z,551.25
2019-02-03T12:37:47.559Z,545.63
2019-02-03T12:38:47.551Z,540.00
2019-02-03T12:39:47.535Z,556.88
2019-02-03T12:40:47.551Z,568.13
2019-02-03T12:41:48.159Z,568.13
2019-02-03T12:42:47.505Z,568.13
2019-02-03T12:43:47.539Z,551.25
2019-02-03T12:44:47.487Z,511.88
2019-02-03T12:45:47.478Z,500.63
2019-02-03T12:46:47.469Z,506.25
2019-02-03T12:47:47.459Z,551.25
2019-02-03T12:48:47.450Z,590.63
2019-02-03T12:49:47.438Z,585.00
2019-02-03T12:50:47.430Z,573.75
2019-02-03T12:51:48.337Z,551.25
2019-02-03T12:52:47.411Z,545.63
2019-02-03T12:53:47.399Z,556.88
2019-02-03T12:54:47.473Z,551.25
2019-02-03T12:55:47.381Z,551.25
2019-02-03T12:56:47.369Z,528.75